createdAt,value
2019-01-31T00:04:24.964Z,29.10
2019-01-31T00:09:38.408Z,29.83
2019-01-31T00:14:44.956Z,27.60
2019-01-31T00:19:52.334Z,27.07
2019-01-31T00:24:58.047Z,29.17
2019-01-31T00:30:36.595Z,33.97
2019-01-31T00:36:41.680Z,29.33
2019-01-31T00:42:22.791Z,24.57
2019-01-31T00:47:53.595Z,15.07
2019-01-31T00:53:21.487Z,26.73
2019-01-31T00:58:45.714Z,26.83
2019-01-31T01:04:25.416Z,19.13
2019-01-31T01:09:40.043Z,24.87
2019-01-31T01:15:01.775Z,28.90
2019-01-31T01:20:18.367Z,22.40
2019-01-31T01:25:43.675Z,24.47
2019-01-31T01:31:12.783Z,30.80
2019-01-31T01:36:33.571Z,28.43
2019-01-31T01:41:57.308Z,25.23
2019-01-31T01:47:16.115Z,24.33
2019-01-31T01:52:45.391Z,24.80
2019-01-31T01:58:15.139Z,20.40
2019-01-31T02:03:39.556Z,18.27
2019-01-31T02:09:10.708Z,17.50
2019-01-31T02:14:39.110Z,17.17
2019-01-31T02:20:35.235Z,21.00
2019-01-31T02:25:55.838Z,29.37
2019-01-31T02:31:32.335Z,22.90
2019-01-31T02:37:25.649Z,22.17
2019-01-31T02:42:40.453Z,20.23
2019-01-31T02:48:39.659Z,21.67
2019-01-31T02:54:05.863Z,24.20
2019-01-31T02:59:46.987Z,17.87
2019-01-31T03:05:40.032Z,27.00
2019-01-31T03:11:15.871Z,22.27
2019-01-31T03:16:47.842Z,21.23
2019-01-31T03:22:02.837Z,18.93
2019-01-31T03:27:28.627Z,24.87
2019-01-31T03:32:41.832Z,17.47
2019-01-31T03:38:25.246Z,19.50
2019-01-31T03:43:36.228Z,14.50
2019-01-31T03:48:50.759Z,21.77
2019-01-31T03:54:27.263Z,26.70
2019-01-31T03:59:37.830Z,18.23
2019-01-31T04:05:03.199Z,21.63
2019-01-31T04:10:02.842Z,19.33
2019-01-31T04:15:02.804Z,22.17
2019-01-31T04:20:02.443Z,17.80
2019-01-31T04:25:02.228Z,25.13
2019-01-31T04:30:01.950Z,22.20
2019-01-31T04:35:01.846Z,24.27
2019-01-31T04:40:01.590Z,19.47
2019-01-31T04:45:01.242Z,20.50
2019-01-31T04:50:01.224Z,28.13
2019-01-31T04:55:01.127Z,23.47
2019-01-31T05:00:00.799Z,24.27
2019-01-31T05:05:00.510Z,24.40
2019-01-31T05:10:00.479Z,22.00
2019-01-31T05:15:00.376Z,28.83
2019-01-31T05:20:00.016Z,21.97
2019-01-31T05:24:59.670Z,24.73
2019-01-31T05:29:59.559Z,25.30
2019-01-31T05:34:59.290Z,22.30
2019-01-31T05:39:59.012Z,20.80
2019-01-31T05:44:58.911Z,23.10
2019-01-31T05:49:58.563Z,24.07
2019-01-31T05:54:58.216Z,15.83
2019-01-31T05:59:57.856Z,23.53
2019-01-31T06:04:57.585Z,22.83
2019-01-31T06:09:57.231Z,26.07
2019-01-31T06:14:56.912Z,26.23
2019-01-31T06:19:56.604Z,23.70
2019-01-31T06:24:56.319Z,25.03
2019-01-31T06:29:56.050Z,24.87
2019-01-31T06:34:55.938Z,32.73
2019-01-31T06:39:55.634Z,20.47
2019-01-31T06:44:56.266Z,25.77
2019-01-31T06:49:55.912Z,24.23
2019-01-31T06:54:55.567Z,23.20
2019-01-31T06:59:55.223Z,23.13
2019-01-31T07:04:54.863Z,20.73
2019-01-31T07:09:54.507Z,28.80
2019-01-31T07:14:54.390Z,26.73
2019-01-31T07:19:56.539Z,31.00
2019-01-31T07:24:55.459Z,22.00
2019-01-31T07:29:55.127Z,29.37
2019-01-31T07:34:54.783Z,24.37
2019-01-31T07:39:54.692Z,20.50
2019-01-31T07:44:54.530Z,22.63
2019-01-31T07:49:54.191Z,19.30
2019-01-31T07:54:53.860Z,20.10
2019-01-31T07:59:53.854Z,23.77
2019-01-31T08:04:53.756Z,23.23
2019-01-31T08:09:56.045Z,22.07
2019-01-31T08:14:54.835Z,22.27
2019-01-31T08:19:54.478Z,19.03
2019-01-31T08:24:55.195Z,26.33
2019-01-31T08:29:54.912Z,24.10
2019-01-31T08:34:54.907Z,27.20
2019-01-31T08:39:54.849Z,27.53
2019-01-31T08:44:54.489Z,25.27
2019-01-31T08:49:54.214Z,14.23
2019-01-31T08:54:53.973Z,28.70
2019-01-31T08:59:53.598Z,22.97
2019-01-31T09:04:53.270Z,24.50
2019-01-31T09:09:52.923Z,26.03
2019-01-31T09:14:53.247Z,18.50
2019-01-31T09:19:52.926Z,20.00
2019-01-31T09:25:19.297Z,19.97
2019-01-31T09:30:50.147Z,16.43
2019-01-31T09:36:16.601Z,17.33
2019-01-31T09:41:33.268Z,18.97
2019-01-31T09:46:46.286Z,25.33
2019-01-31T09:52:18.285Z,17.10
2019-01-31T09:57:59.643Z,16.60
2019-01-31T10:03:47.511Z,21.07
2019-01-31T10:09:37.713Z,13.33
2019-01-31T10:14:46.266Z,20.93
2019-01-31T10:20:07.932Z,17.70
2019-01-31T10:25:35.782Z,19.47
2019-01-31T10:30:48.698Z,14.37
2019-01-31T10:36:28.482Z,16.13
2019-01-31T10:42:03.397Z,14.37
2019-01-31T10:47:35.054Z,28.67
2019-01-31T10:53:33.879Z,10.40
2019-01-31T10:59:01.298Z,10.90
2019-01-31T11:04:38.032Z,9.80
2019-01-31T11:10:11.311Z,7.83
2019-01-31T11:15:40.971Z,6.53
2019-01-31T11:21:21.206Z,8.80
2019-01-31T11:27:14.177Z,7.93
2019-01-31T11:32:48.595Z,4.97
2019-01-31T11:38:21.119Z,7.93
2019-01-31T11:43:59.695Z,9.90
2019-01-31T11:49:54.510Z,8.13
2019-01-31T11:55:27.883Z,7.03
2019-01-31T12:00:28.075Z,6.20
2019-01-31T12:05:27.790Z,6.80
2019-01-31T12:10:27.591Z,8.00
2019-01-31T12:15:27.342Z,10.67
2019-01-31T12:20:27.251Z,8.40
2019-01-31T12:25:27.124Z,7.37
2019-01-31T12:30:27.571Z,6.27
2019-01-31T12:35:27.239Z,7.30
2019-01-31T12:40:27.207Z,6.87
2019-01-31T12:45:26.919Z,6.27
2019-01-31T12:50:27.972Z,6.53
2019-01-31T12:55:28.670Z,11.10
2019-01-31T13:00:29.299Z,10.20
2019-01-31T13:05:29.149Z,8.77
2019-01-31T13:10:28.770Z,8.83
2019-01-31T13:15:29.495Z,7.37
2019-01-31T13:20:29.362Z,4.53
2019-01-31T13:25:29.375Z,9.10
2019-01-31T13:30:29.203Z,4.87
2019-01-31T13:35:29.063Z,8.20
2019-01-31T13:40:28.807Z,8.87
2019-01-31T13:45:30.748Z,7.00
2019-01-31T13:50:30.615Z,3.90
2019-01-31T13:55:30.994Z,4.67
2019-01-31T14:00:30.633Z,7.37
2019-01-31T14:05:30.728Z,5.57
2019-01-31T14:10:30.439Z,6.67
2019-01-31T14:15:34.192Z,6.77
2019-01-31T14:20:34.195Z,4.30
2019-01-31T14:25:34.870Z,4.90
2019-01-31T14:30:36.448Z,5.70
2019-01-31T14:35:36.091Z,4.83
2019-01-31T14:40:35.807Z,4.30
2019-01-31T14:45:35.504Z,5.83
2019-01-31T14:50:35.487Z,7.93
2019-01-31T14:55:35.155Z,3.70
2019-01-31T15:00:34.874Z,7.27
2019-01-31T15:05:36.767Z,4.07
2019-01-31T15:10:36.211Z,5.10
2019-01-31T15:15:36.037Z,3.93
2019-01-31T15:20:41.083Z,4.90
2019-01-31T15:25:40.871Z,4.67
2019-01-31T15:30:40.580Z,5.00
2019-01-31T15:35:41.041Z,5.43
2019-01-31T15:40:43.418Z,7.80
2019-01-31T15:45:43.198Z,4.40
2019-01-31T15:50:42.995Z,4.80
2019-01-31T15:55:43.103Z,5.50
2019-01-31T16:00:48.267Z,6.63
2019-01-31T16:05:48.202Z,5.30
2019-01-31T16:10:48.002Z,5.43
2019-01-31T16:15:47.991Z,6.87
2019-01-31T16:20:47.774Z,8.73
2019-01-31T16:25:48.180Z,8.23
2019-01-31T16:30:47.955Z,6.23
2019-01-31T16:35:48.674Z,6.27
2019-01-31T16:40:48.392Z,8.20
2019-01-31T16:45:48.052Z,10.93
2019-01-31T16:50:47.740Z,6.57
2019-01-31T16:55:47.394Z,8.20
2019-01-31T17:00:47.110Z,7.47
2019-01-31T17:05:46.902Z,7.87
2019-01-31T17:10:46.939Z,9.70
2019-01-31T17:15:46.955Z,10.70
2019-01-31T17:20:47.215Z,8.87
2019-01-31T17:25:47.004Z,6.80
2019-01-31T17:30:46.699Z,11.13
2019-01-31T17:35:46.363Z,9.70
2019-01-31T17:40:46.293Z,7.73
2019-01-31T17:45:46.003Z,9.57
2019-01-31T17:50:46.643Z,11.60
2019-01-31T17:55:46.551Z,16.40
2019-01-31T18:00:49.811Z,11.00
2019-01-31T18:05:49.884Z,12.27
2019-01-31T18:10:49.547Z,10.30
2019-01-31T18:15:50.579Z,12.50
2019-01-31T18:20:50.392Z,12.20
2019-01-31T18:25:50.282Z,13.20
2019-01-31T18:30:49.936Z,13.10
2019-01-31T18:35:49.663Z,13.83
2019-01-31T18:40:49.430Z,13.20
2019-01-31T18:45:53.474Z,8.53
2019-01-31T18:50:50.580Z,11.70
2019-01-31T18:55:50.330Z,12.77
2019-01-31T19:00:50.747Z,10.67
2019-01-31T19:05:50.486Z,17.30
2019-01-31T19:10:51.294Z,14.07
2019-01-31T19:15:50.982Z,10.63
2019-01-31T19:20:50.951Z,13.50
2019-01-31T19:25:50.651Z,13.77
2019-01-31T19:30:50.306Z,15.93
2019-01-31T19:35:50.047Z,14.40
2019-01-31T19:40:49.811Z,10.60
2019-01-31T19:45:50.672Z,13.57
2019-01-31T19:50:50.382Z,14.70
2019-01-31T19:55:50.260Z,12.40
2019-01-31T20:00:50.364Z,14.50
2019-01-31T20:05:50.176Z,17.47
2019-01-31T20:10:49.963Z,13.53
2019-01-31T20:15:49.935Z,13.87
2019-01-31T20:20:49.593Z,12.87
2019-01-31T20:25:49.414Z,10.97
2019-01-31T20:30:49.478Z,12.40
2019-01-31T20:35:49.287Z,15.63
2019-01-31T20:40:49.088Z,12.60
2019-01-31T20:45:49.023Z,10.83
2019-01-31T20:50:48.794Z,17.83
2019-01-31T20:55:48.503Z,13.70
2019-01-31T21:00:49.404Z,10.87
2019-01-31T21:05:49.352Z,11.23
2019-01-31T21:10:49.171Z,12.63
2019-01-31T21:15:48.905Z,18.37
2019-01-31T21:20:48.565Z,14.50
2019-01-31T21:25:48.271Z,13.03
2019-01-31T21:30:47.998Z,14.77
2019-01-31T21:35:47.657Z,13.93
2019-01-31T21:40:47.442Z,18.23
2019-01-31T21:45:47.169Z,11.90
2019-01-31T21:50:46.830Z,16.73
2019-01-31T21:55:46.590Z,15.23
2019-01-31T22:00:46.326Z,15.70
2019-01-31T22:05:47.082Z,15.67
2019-01-31T22:10:46.968Z,13.07
2019-01-31T22:15:47.039Z,15.80
2019-01-31T22:20:47.901Z,15.07
2019-01-31T22:25:47.599Z,14.47
2019-01-31T22:30:47.322Z,14.13
2019-01-31T22:35:47.063Z,11.97
2019-01-31T22:40:46.787Z,11.97
2019-01-31T22:45:46.448Z,13.57
2019-01-31T22:50:46.175Z,14.00
2019-01-31T22:55:46.054Z,13.13
2019-01-31T23:01:12.546Z,14.17
2019-01-31T23:06:15.038Z,18.17
2019-01-31T23:11:14.671Z,12.97
2019-01-31T23:16:15.274Z,13.77
2019-01-31T23:21:15.079Z,14.80
2019-01-31T23:26:14.752Z,17.20
2019-01-31T23:31:15.447Z,17.50
2019-01-31T23:36:15.167Z,18.30
2019-01-31T23:41:14.838Z,16.57
2019-01-31T23:46:14.717Z,15.53
2019-01-31T23:51:14.467Z,19.80
2019-01-31T23:56:14.211Z,14.70
